createdAt,value
2023-03-29T00:00:52.461Z,96622.90
2023-03-29T00:03:23.282Z,96629.00
2023-03-29T00:05:58.327Z,96635.68
2023-03-29T00:08:29.728Z,96635.36
2023-03-29T00:11:01.099Z,96635.41
2023-03-29T00:13:31.461Z,96637.77
2023-03-29T00:16:01.297Z,96635.41
2023-03-29T00:18:31.951Z,96636.80
2023-03-29T00:21:02.480Z,96649.49
2023-03-29T00:23:33.014Z,96648.23
2023-03-29T00:26:03.860Z,96648.60
2023-03-29T00:28:35.235Z,96643.80
2023-03-29T00:31:07.785Z,96657.28
2023-03-29T00:33:38.441Z,96654.20
2023-03-29T00:36:09.408Z,96653.88
2023-03-29T00:38:40.261Z,96657.02
2023-03-29T00:41:11.114Z,96661.16
2023-03-29T00:43:56.637Z,96662.52
2023-03-29T00:46:28.287Z,96661.54
2023-03-29T00:49:09.258Z,96652.55
2023-03-29T00:51:42.965Z,96650.75
2023-03-29T00:54:19.041Z,96652.96
2023-03-29T00:56:51.588Z,96655.91
2023-03-29T00:59:25.113Z,96660.45
2023-03-29T01:02:07.854Z,96657.35
2023-03-29T01:04:47.067Z,96659.72
2023-03-29T01:07:28.718Z,96656.16
2023-03-29T01:10:12.059Z,96657.71
2023-03-29T01:12:57.060Z,96657.02
2023-03-29T01:15:28.717Z,96658.41
2023-03-29T01:18:02.200Z,96657.96
2023-03-29T01:21:08.351Z,96659.02
2023-03-29T01:23:58.654Z,96656.89
2023-03-29T01:26:35.477Z,96654.09
2023-03-29T01:29:13.451Z,96654.96
2023-03-29T01:31:55.180Z,96657.20
2023-03-29T01:34:58.100Z,96660.34
2023-03-29T01:37:38.096Z,96655.23
2023-03-29T01:40:08.436Z,96660.02
2023-03-29T01:42:51.832Z,96652.27
2023-03-29T01:45:50.567Z,96655.66
2023-03-29T01:48:31.525Z,96659.63
2023-03-29T01:51:14.005Z,96661.64
2023-03-29T01:53:55.874Z,96664.36
2023-03-29T01:56:29.636Z,96665.87
2023-03-29T01:59:07.203Z,96666.08
2023-03-29T02:01:41.263Z,96660.70
2023-03-29T02:04:14.193Z,96657.70
2023-03-29T02:06:43.665Z,96658.04
2023-03-29T02:09:13.963Z,96651.89
2023-03-29T02:11:46.064Z,96656.91
2023-03-29T02:14:17.431Z,96650.73
2023-03-29T02:16:46.811Z,96658.66
2023-03-29T02:19:18.118Z,96652.64
2023-03-29T02:22:05.690Z,96654.37
2023-03-29T02:24:37.353Z,96656.86
2023-03-29T02:27:08.040Z,96664.39
2023-03-29T02:29:37.782Z,96669.52
2023-03-29T02:32:19.896Z,96662.23
2023-03-29T02:34:59.006Z,96668.33
2023-03-29T02:37:31.619Z,96675.83
2023-03-29T02:40:09.470Z,96672.90
2023-03-29T02:42:40.427Z,96677.61
2023-03-29T02:45:12.912Z,96686.11
2023-03-29T02:47:52.507Z,96691.96
2023-03-29T02:50:25.538Z,96694.30
2023-03-29T02:53:05.044Z,96697.62
2023-03-29T02:55:39.307Z,96701.45
2023-03-29T02:58:09.102Z,96705.73
2023-03-29T03:00:45.090Z,96705.42
2023-03-29T03:03:16.257Z,96709.17
2023-03-29T03:05:47.194Z,96710.21
2023-03-29T03:08:17.538Z,96710.20
2023-03-29T03:10:48.382Z,96710.70
2023-03-29T03:13:17.029Z,96709.27
2023-03-29T03:15:49.669Z,96721.62
2023-03-29T03:18:19.538Z,96721.25
2023-03-29T03:21:02.377Z,96722.77
2023-03-29T03:23:33.158Z,96720.64
2023-03-29T03:26:03.392Z,96720.17
2023-03-29T03:28:33.786Z,96712.11
2023-03-29T03:31:05.467Z,96713.40
2023-03-29T03:33:57.057Z,96720.67
2023-03-29T03:36:57.577Z,96727.24
2023-03-29T03:39:27.775Z,96731.61
2023-03-29T03:41:58.079Z,96735.23
2023-03-29T03:44:28.469Z,96743.33
2023-03-29T03:47:17.934Z,96735.77
2023-03-29T03:49:48.073Z,96738.84
2023-03-29T03:52:19.496Z,96750.00
2023-03-29T03:54:50.710Z,96747.23
2023-03-29T03:57:44.306Z,96749.61
2023-03-29T04:00:19.908Z,96753.06
2023-03-29T04:02:57.125Z,96754.40
2023-03-29T04:05:27.453Z,96757.00
2023-03-29T04:07:57.902Z,96760.16
2023-03-29T04:10:27.992Z,96758.02
2023-03-29T04:13:24.797Z,96766.24
2023-03-29T04:16:31.855Z,96771.05
2023-03-29T04:19:09.764Z,96764.81
2023-03-29T04:21:39.526Z,96767.67
2023-03-29T04:24:09.430Z,96773.16
2023-03-29T04:26:40.546Z,96771.25
2023-03-29T04:29:18.056Z,96773.73
2023-03-29T04:31:52.922Z,96778.56
2023-03-29T04:34:57.824Z,96778.70
2023-03-29T04:37:28.282Z,96783.55
2023-03-29T04:40:00.742Z,96782.58
2023-03-29T04:42:32.494Z,96782.41
2023-03-29T04:45:02.537Z,96785.21
2023-03-29T04:47:49.366Z,96786.13
2023-03-29T04:50:23.592Z,96789.17
2023-03-29T04:52:53.743Z,96783.95
2023-03-29T04:55:23.260Z,96788.16
2023-03-29T04:58:05.250Z,96790.59
2023-03-29T05:00:38.419Z,96794.39
2023-03-29T05:03:32.825Z,96796.04
2023-03-29T05:06:08.343Z,96807.08
2023-03-29T05:08:40.829Z,96810.33
2023-03-29T05:11:24.719Z,96804.06
2023-03-29T05:13:56.327Z,96805.77
2023-03-29T05:16:26.875Z,96804.86
2023-03-29T05:18:59.370Z,96803.20
2023-03-29T05:21:29.041Z,96799.42
2023-03-29T05:24:00.390Z,96804.97
2023-03-29T05:26:52.190Z,96809.27
2023-03-29T05:29:23.885Z,96800.69
2023-03-29T05:32:00.175Z,96813.66
2023-03-29T05:34:31.878Z,96813.83
2023-03-29T05:37:03.146Z,96815.10
2023-03-29T05:39:40.259Z,96822.75
2023-03-29T05:42:12.832Z,96822.91
2023-03-29T05:44:56.562Z,96825.86
2023-03-29T05:47:26.657Z,96823.89
2023-03-29T05:49:57.716Z,96824.20
2023-03-29T05:52:26.842Z,96822.79
2023-03-29T05:54:58.584Z,96826.95
2023-03-29T05:57:28.569Z,96832.36
2023-03-29T06:00:00.682Z,96834.91
2023-03-29T06:02:30.181Z,96835.61
2023-03-29T06:05:01.198Z,96842.34
2023-03-29T06:07:55.072Z,96843.64
2023-03-29T06:11:04.476Z,96837.98
2023-03-29T06:14:05.918Z,96851.19
2023-03-29T06:16:34.880Z,96857.23
2023-03-29T06:19:05.818Z,96858.07
2023-03-29T06:21:36.165Z,96859.03
2023-03-29T06:24:05.928Z,96850.61
2023-03-29T06:26:40.643Z,96858.23
2023-03-29T06:29:10.717Z,96869.64
2023-03-29T06:31:41.400Z,96868.36
2023-03-29T06:34:14.183Z,96853.95
2023-03-29T06:36:58.082Z,96875.16
2023-03-29T06:39:29.077Z,96868.04
2023-03-29T06:42:23.042Z,96874.17
2023-03-29T06:45:09.192Z,96874.80
2023-03-29T06:47:41.407Z,96873.11
2023-03-29T06:50:12.154Z,96884.93
2023-03-29T06:53:02.142Z,96874.27
2023-03-29T06:55:33.463Z,96884.75
2023-03-29T06:58:14.239Z,96885.21
2023-03-29T07:00:44.302Z,96896.10
2023-03-29T07:03:23.789Z,96894.30
2023-03-29T07:06:10.842Z,96892.17
2023-03-29T07:08:45.338Z,96901.92
2023-03-29T07:11:21.736Z,96890.92
2023-03-29T07:13:57.235Z,96890.29
2023-03-29T07:16:27.684Z,96903.61
2023-03-29T07:18:57.864Z,96894.62
2023-03-29T07:21:50.925Z,96907.57
2023-03-29T07:24:22.066Z,96904.27
2023-03-29T07:27:02.714Z,96902.18
2023-03-29T07:29:34.198Z,96904.92
2023-03-29T07:32:04.779Z,96911.11
2023-03-29T07:34:48.833Z,96907.01
2023-03-29T07:37:25.377Z,96912.83
2023-03-29T07:39:54.927Z,96914.86
2023-03-29T07:42:54.463Z,96917.39
2023-03-29T07:45:28.265Z,96915.42
2023-03-29T07:48:13.706Z,96920.55
2023-03-29T07:51:01.937Z,96930.66
2023-03-29T07:53:37.565Z,96930.98
2023-03-29T07:56:09.416Z,96935.23
2023-03-29T07:58:49.936Z,96931.27
2023-03-29T08:01:20.936Z,96931.02
2023-03-29T08:04:01.125Z,96923.42
2023-03-29T08:07:04.256Z,96932.67
2023-03-29T08:09:49.737Z,96934.23
2023-03-29T08:12:20.607Z,96926.73
2023-03-29T08:14:52.202Z,96933.66
2023-03-29T08:17:30.034Z,96936.17
2023-03-29T08:20:01.692Z,96936.61
2023-03-29T08:22:32.829Z,96920.59
2023-03-29T08:25:20.012Z,96925.73
2023-03-29T08:27:52.210Z,96935.73
2023-03-29T08:30:32.193Z,96936.23
2023-03-29T08:33:03.523Z,96943.30
2023-03-29T08:35:33.649Z,96938.47
2023-03-29T08:38:15.252Z,96941.46
2023-03-29T08:40:48.941Z,96934.52
2023-03-29T08:43:56.358Z,96927.77
2023-03-29T08:46:59.651Z,96936.95
2023-03-29T08:49:38.444Z,96948.88
2023-03-29T08:52:29.350Z,96946.09
2023-03-29T08:55:01.965Z,96944.77
2023-03-29T08:57:52.153Z,96952.34
2023-03-29T09:00:43.860Z,96946.42
2023-03-29T09:03:24.258Z,96956.00
2023-03-29T09:06:05.089Z,96959.70
2023-03-29T09:08:41.797Z,96958.83
2023-03-29T09:11:26.671Z,96960.87
2023-03-29T09:14:16.734Z,96969.89
2023-03-29T09:16:53.509Z,96965.59
2023-03-29T09:19:54.973Z,96967.36
2023-03-29T09:22:32.919Z,96961.62
2023-03-29T09:25:03.787Z,96964.81
2023-03-29T09:27:45.711Z,96957.64
2023-03-29T09:30:41.965Z,96966.95
2023-03-29T09:33:26.515Z,96955.75
2023-03-29T09:36:52.758Z,96955.29
2023-03-29T09:39:23.998Z,96960.66
2023-03-29T09:42:09.390Z,96952.98
2023-03-29T09:44:48.781Z,96955.02
2023-03-29T09:47:38.625Z,96954.95
2023-03-29T09:50:31.531Z,96955.58
2023-03-29T09:53:05.822Z,96948.61
2023-03-29T09:55:41.081Z,96946.39
2023-03-29T09:58:34.646Z,96949.45
2023-03-29T10:01:12.483Z,96954.09
2023-03-29T10:03:48.030Z,96951.29
2023-03-29T10:06:23.795Z,96954.97
2023-03-29T10:08:59.296Z,96949.27
2023-03-29T10:11:38.810Z,96952.89
2023-03-29T10:14:19.481Z,96951.59
2023-03-29T10:16:56.553Z,96947.34
2023-03-29T10:19:37.175Z,96947.06
2023-03-29T10:22:16.913Z,96952.95
2023-03-29T10:24:53.908Z,96948.81
2023-03-29T10:27:27.912Z,96952.96
2023-03-29T10:30:00.691Z,96946.90
2023-03-29T10:32:38.042Z,96943.90
2023-03-29T10:35:26.902Z,96945.73
2023-03-29T10:38:01.802Z,96940.08
2023-03-29T10:40:36.376Z,96935.09
2023-03-29T10:43:33.134Z,96931.36
2023-03-29T10:46:21.124Z,96934.77
2023-03-29T10:48:54.485Z,96934.05
2023-03-29T10:51:28.030Z,96928.71
2023-03-29T10:54:02.154Z,96935.85
2023-03-29T10:57:13.422Z,96924.67
2023-03-29T10:59:55.781Z,96917.80
2023-03-29T11:02:43.802Z,96911.91
2023-03-29T11:05:31.694Z,96901.73
2023-03-29T11:08:38.228Z,96907.92
2023-03-29T11:11:25.164Z,96900.23
2023-03-29T11:14:20.124Z,96896.42
2023-03-29T11:16:53.302Z,96897.52
2023-03-29T11:19:40.474Z,96892.48
2023-03-29T11:22:21.094Z,96884.57
2023-03-29T11:25:17.588Z,96885.75
2023-03-29T11:28:22.427Z,96880.58
2023-03-29T11:31:05.455Z,96877.34
2023-03-29T11:34:23.638Z,96874.17
2023-03-29T11:37:09.084Z,96866.52
2023-03-29T11:39:58.509Z,96869.96
2023-03-29T11:42:33.601Z,96865.42
2023-03-29T11:45:06.764Z,96863.03
2023-03-29T11:47:41.445Z,96857.80
2023-03-29T11:50:33.068Z,96853.86
2023-03-29T11:53:12.121Z,96852.33
2023-03-29T11:55:43.031Z,96855.13
2023-03-29T11:58:32.950Z,96851.98
2023-03-29T12:01:30.077Z,96849.20
2023-03-29T12:04:24.929Z,96850.39
2023-03-29T12:07:04.306Z,96842.53
2023-03-29T12:09:50.431Z,96839.94
2023-03-29T12:12:34.208Z,96839.02
2023-03-29T12:15:26.724Z,96842.91
2023-03-29T12:18:27.569Z,96839.58
2023-03-29T12:21:01.898Z,96845.14
2023-03-29T12:23:34.520Z,96844.52
2023-03-29T12:26:34.235Z,96838.45
2023-03-29T12:29:22.239Z,96842.23
2023-03-29T12:31:56.880Z,96837.77
2023-03-29T12:34:51.193Z,96838.52
2023-03-29T12:37:43.655Z,96838.37
2023-03-29T12:40:44.924Z,96845.39
2023-03-29T12:43:39.071Z,96836.60
2023-03-29T12:46:26.849Z,96843.50
2023-03-29T12:49:01.650Z,96852.23
2023-03-29T12:51:35.846Z,96848.64
2023-03-29T12:54:29.075Z,96848.24
2023-03-29T12:57:19.908Z,96850.73
2023-03-29T12:59:52.801Z,96842.82
2023-03-29T13:02:33.614Z,96848.08
2023-03-29T13:05:05.980Z,96849.11
2023-03-29T13:07:47.956Z,96841.98
2023-03-29T13:10:42.621Z,96837.34
2023-03-29T13:13:24.877Z,96839.31
2023-03-29T13:15:57.549Z,96846.77
2023-03-29T13:18:58.577Z,96854.77
2023-03-29T13:21:54.285Z,96851.88
2023-03-29T13:24:53.952Z,96856.56
2023-03-29T13:27:34.650Z,96851.88
2023-03-29T13:30:12.115Z,96852.66
2023-03-29T13:32:49.195Z,96851.98
2023-03-29T13:35:47.296Z,96847.61
2023-03-29T13:38:23.197Z,96848.58
2023-03-29T13:41:01.907Z,96840.58
2023-03-29T13:43:38.714Z,96851.61
2023-03-29T13:46:23.571Z,96850.00
2023-03-29T13:49:08.701Z,96851.43
2023-03-29T13:51:48.679Z,96845.45
2023-03-29T13:54:36.930Z,96848.21
2023-03-29T13:57:22.726Z,96842.23
2023-03-29T14:00:00.194Z,96839.64
2023-03-29T14:02:33.708Z,96840.39
2023-03-29T14:05:12.492Z,96834.12
2023-03-29T14:07:53.395Z,96829.86
2023-03-29T14:10:33.318Z,96835.21
2023-03-29T14:13:04.901Z,96833.00
2023-03-29T14:15:55.639Z,96825.06
2023-03-29T14:18:27.984Z,96829.92
2023-03-29T14:21:00.650Z,96829.92
2023-03-29T14:23:32.743Z,96827.74
2023-03-29T14:26:11.048Z,96821.70
2023-03-29T14:28:59.513Z,96825.52
2023-03-29T14:31:37.281Z,96824.33
2023-03-29T14:34:14.248Z,96826.23
2023-03-29T14:36:54.797Z,96820.80
2023-03-29T14:39:24.595Z,96815.59
2023-03-29T14:41:58.133Z,96824.20
2023-03-29T14:44:36.662Z,96820.10
2023-03-29T14:47:06.887Z,96818.49
2023-03-29T14:49:37.351Z,96816.73
2023-03-29T14:52:07.876Z,96819.37
2023-03-29T14:54:40.447Z,96814.79
2023-03-29T14:57:22.297Z,96817.02
2023-03-29T14:59:59.581Z,96813.70
2023-03-29T15:02:33.914Z,96826.25
2023-03-29T15:05:07.886Z,96817.30
2023-03-29T15:07:37.493Z,96823.23
2023-03-29T15:10:08.705Z,96822.88
2023-03-29T15:12:42.740Z,96818.98
2023-03-29T15:15:14.221Z,96827.81
2023-03-29T15:17:52.304Z,96821.23
2023-03-29T15:20:34.166Z,96827.69
2023-03-29T15:23:16.952Z,96825.36
2023-03-29T15:26:15.406Z,96824.87
2023-03-29T15:28:55.956Z,96821.73
2023-03-29T15:31:33.359Z,96822.73
2023-03-29T15:34:09.400Z,96824.52
2023-03-29T15:36:46.869Z,96827.29
2023-03-29T15:39:18.113Z,96829.45
2023-03-29T15:41:51.680Z,96829.30
2023-03-29T15:44:29.511Z,96832.59
2023-03-29T15:47:00.307Z,96831.23
2023-03-29T15:49:29.769Z,96838.55
2023-03-29T15:51:59.501Z,96836.71
2023-03-29T15:54:31.378Z,96839.50
2023-03-29T15:57:15.213Z,96839.23
2023-03-29T15:59:45.825Z,96840.80
2023-03-29T16:02:23.447Z,96833.48
2023-03-29T16:04:53.881Z,96840.17
2023-03-29T16:07:23.630Z,96835.63
2023-03-29T16:09:53.531Z,96836.91
2023-03-29T16:12:23.470Z,96833.88
2023-03-29T16:14:53.457Z,96838.48
2023-03-29T16:17:23.244Z,96839.77
2023-03-29T16:19:53.045Z,96838.64
2023-03-29T16:22:23.381Z,96847.09
2023-03-29T16:24:52.976Z,96849.56
2023-03-29T16:27:22.745Z,96854.45
2023-03-29T16:29:51.369Z,96851.27
2023-03-29T16:32:23.260Z,96851.23
2023-03-29T16:34:52.836Z,96855.17
2023-03-29T16:37:22.636Z,96864.23
2023-03-29T16:39:53.062Z,96866.30
2023-03-29T16:42:22.606Z,96868.48
2023-03-29T16:44:52.558Z,96873.98
2023-03-29T16:47:22.907Z,96877.55
2023-03-29T16:49:52.273Z,96881.98
2023-03-29T16:52:21.774Z,96878.99
2023-03-29T16:54:53.438Z,96874.67
2023-03-29T16:57:22.753Z,96874.48
2023-03-29T16:59:52.709Z,96881.63
2023-03-29T17:02:22.779Z,96881.41
2023-03-29T17:04:52.701Z,96883.16
2023-03-29T17:07:22.165Z,96891.55
2023-03-29T17:09:52.916Z,96891.85
2023-03-29T17:12:22.023Z,96892.20
2023-03-29T17:14:51.692Z,96900.11
2023-03-29T17:17:21.697Z,96905.85
2023-03-29T17:19:51.706Z,96902.79
2023-03-29T17:22:24.191Z,96901.42
2023-03-29T17:24:54.039Z,96909.27
2023-03-29T17:27:23.888Z,96914.67
2023-03-29T17:29:53.863Z,96919.38
2023-03-29T17:32:23.671Z,96918.41
2023-03-29T17:34:53.648Z,96921.05
2023-03-29T17:37:24.300Z,96926.95
2023-03-29T17:39:54.475Z,96928.08
2023-03-29T17:42:24.390Z,96934.71
2023-03-29T17:44:54.982Z,96937.83
2023-03-29T17:47:25.096Z,96942.71
2023-03-29T17:49:54.846Z,96942.02
2023-03-29T17:52:24.670Z,96939.98
2023-03-29T17:54:54.295Z,96941.60
2023-03-29T17:57:24.440Z,96937.55
2023-03-29T17:59:54.174Z,96941.69
2023-03-29T18:02:25.061Z,96940.54
2023-03-29T18:04:55.046Z,96945.45
2023-03-29T18:07:24.987Z,96946.61
2023-03-29T18:09:54.927Z,96944.94
2023-03-29T18:12:29.132Z,96942.02
2023-03-29T18:14:59.877Z,96939.84
2023-03-29T18:17:29.634Z,96952.36
2023-03-29T18:20:01.893Z,96952.71
2023-03-29T18:22:34.582Z,96954.27
2023-03-29T18:25:06.267Z,96954.92
2023-03-29T18:27:37.725Z,96955.67
2023-03-29T18:30:09.139Z,96956.16
2023-03-29T18:32:37.789Z,96958.20
2023-03-29T18:35:08.407Z,96955.20
2023-03-29T18:37:38.503Z,96962.23
2023-03-29T18:40:09.677Z,96972.98
2023-03-29T18:42:41.887Z,96972.16
2023-03-29T18:45:12.230Z,96973.95
2023-03-29T18:47:42.616Z,96980.07
2023-03-29T18:50:13.739Z,96980.23
2023-03-29T18:52:43.704Z,96978.14
2023-03-29T18:55:12.229Z,96973.55
2023-03-29T18:57:42.939Z,96979.14
2023-03-29T19:00:13.361Z,96978.48
2023-03-29T19:02:43.692Z,96975.23
2023-03-29T19:05:14.162Z,96974.41
2023-03-29T19:07:44.020Z,96975.70
2023-03-29T19:10:14.581Z,96975.77
2023-03-29T19:12:44.852Z,96981.16
2023-03-29T19:15:14.731Z,96970.04
2023-03-29T19:17:45.437Z,96976.16
2023-03-29T19:20:17.010Z,96978.02
2023-03-29T19:22:47.124Z,96981.54
2023-03-29T19:25:17.042Z,96981.66
2023-03-29T19:27:47.344Z,96978.29
2023-03-29T19:30:18.567Z,96983.30
2023-03-29T19:32:48.645Z,96986.61
2023-03-29T19:35:18.668Z,96984.70
2023-03-29T19:37:48.550Z,96985.95
2023-03-29T19:40:18.461Z,96987.70
2023-03-29T19:42:48.898Z,96985.14
2023-03-29T19:45:18.666Z,96987.50
2023-03-29T19:47:54.807Z,96990.48
2023-03-29T19:50:26.664Z,96987.60
2023-03-29T19:52:58.895Z,96991.94
2023-03-29T19:55:28.794Z,96988.64
2023-03-29T19:57:58.649Z,96986.55
2023-03-29T20:00:28.324Z,96992.08
2023-03-29T20:02:58.135Z,96987.15
2023-03-29T20:05:28.892Z,96987.89
2023-03-29T20:07:58.082Z,96993.89
2023-03-29T20:10:27.789Z,96992.77
2023-03-29T20:12:57.647Z,96987.27
2023-03-29T20:15:27.622Z,96996.29
2023-03-29T20:17:59.437Z,96990.84
2023-03-29T20:20:32.134Z,96996.11
2023-03-29T20:23:05.006Z,96999.66
2023-03-29T20:25:36.610Z,97004.61
2023-03-29T20:28:07.062Z,97002.01
2023-03-29T20:30:37.159Z,97002.98
2023-03-29T20:33:07.999Z,97002.39
2023-03-29T20:35:38.082Z,97001.30
2023-03-29T20:38:07.744Z,97001.13
2023-03-29T20:40:37.653Z,97002.70
2023-03-29T20:43:13.893Z,97000.00
2023-03-29T20:45:52.628Z,96998.14
2023-03-29T20:48:24.630Z,97002.25
2023-03-29T20:50:54.637Z,96999.79
2023-03-29T20:53:25.621Z,96995.67
2023-03-29T20:55:55.409Z,96996.30
2023-03-29T20:58:27.715Z,96996.84
2023-03-29T21:00:59.176Z,96994.13
2023-03-29T21:03:28.990Z,96993.36
2023-03-29T21:05:58.763Z,96989.35
2023-03-29T21:08:29.235Z,96989.91
2023-03-29T21:10:58.944Z,96989.62
2023-03-29T21:13:34.382Z,96986.89
2023-03-29T21:16:07.816Z,96993.02
2023-03-29T21:18:39.121Z,96994.11
2023-03-29T21:21:10.410Z,96990.55
2023-03-29T21:23:40.615Z,96994.23
2023-03-29T21:26:10.753Z,96993.88
2023-03-29T21:28:41.789Z,96995.58
2023-03-29T21:31:11.908Z,96998.79
2023-03-29T21:33:41.982Z,96994.61
2023-03-29T21:36:12.110Z,96995.52
2023-03-29T21:38:41.896Z,96997.11
2023-03-29T21:41:14.144Z,97000.17
2023-03-29T21:43:44.435Z,96998.50
2023-03-29T21:46:15.935Z,96997.70
2023-03-29T21:48:45.431Z,96996.37
2023-03-29T21:51:15.206Z,96997.85
2023-03-29T21:53:44.869Z,96994.65
2023-03-29T21:56:16.967Z,96995.91
2023-03-29T21:58:46.817Z,96995.23
2023-03-29T22:01:17.220Z,96992.82
2023-03-29T22:03:48.008Z,96994.42
2023-03-29T22:06:18.176Z,96997.52
2023-03-29T22:08:49.870Z,96992.37
2023-03-29T22:11:19.871Z,96992.08
2023-03-29T22:13:52.324Z,96992.83
2023-03-29T22:16:22.648Z,96989.89
2023-03-29T22:18:54.347Z,96990.80
2023-03-29T22:21:26.998Z,96990.42
2023-03-29T22:23:57.876Z,96993.79
2023-03-29T22:26:30.912Z,96996.02
2023-03-29T22:29:01.769Z,96990.61
2023-03-29T22:31:32.400Z,96992.89
2023-03-29T22:34:03.144Z,96993.52
2023-03-29T22:36:34.474Z,96990.55
2023-03-29T22:39:05.455Z,96992.34
2023-03-29T22:41:38.047Z,96994.85
2023-03-29T22:44:08.238Z,97000.63
2023-03-29T22:46:38.707Z,97004.20
2023-03-29T22:49:08.457Z,96999.57
2023-03-29T22:51:38.613Z,96998.49
2023-03-29T22:54:08.459Z,97000.30
2023-03-29T22:56:38.621Z,96999.55
2023-03-29T22:59:07.578Z,96994.37
2023-03-29T23:01:37.773Z,97001.61
2023-03-29T23:04:07.980Z,97000.79
2023-03-29T23:06:37.960Z,96995.14
2023-03-29T23:09:08.371Z,96995.27
2023-03-29T23:11:38.464Z,96996.27
2023-03-29T23:14:09.120Z,97002.01
2023-03-29T23:16:38.681Z,97007.15
2023-03-29T23:19:08.462Z,97010.15
2023-03-29T23:21:38.840Z,97005.92
2023-03-29T23:24:08.894Z,97006.80
2023-03-29T23:26:38.880Z,97007.72
2023-03-29T23:29:09.072Z,97006.38
2023-03-29T23:31:39.292Z,97008.54
2023-03-29T23:34:09.640Z,97008.44
2023-03-29T23:36:39.783Z,97014.17
2023-03-29T23:39:10.404Z,97012.67
2023-03-29T23:41:40.660Z,97010.76
2023-03-29T23:44:10.781Z,97006.49
2023-03-29T23:46:41.372Z,97011.91
2023-03-29T23:49:11.536Z,97011.49
2023-03-29T23:51:43.185Z,97013.02
2023-03-29T23:54:13.278Z,97014.29
2023-03-29T23:56:41.870Z,97015.00
2023-03-29T23:59:14.331Z,97013.24
